La Grange, California
Current Conditions -  °F | °C
As of 10:45 AM on Friday 24 Oct 2014 (Local Time) from KMER Reporting Station
Clear Clear  
Wind Chill: 66°   Ceiling: Unl
Heat Index: 66°   Visibility: 7mi
Dew Point: 59°   Wind: 0mph
Humidity: 78%   Direction: NA
Pressure: 29.99"   Gusts: NA
Location:  37.66°N, 120.46°W
Report Text: KMER 241745Z 00000KT 7SM SKC 19/15 A2999
Loading
Personal Weather Stations






























Interactive Weather Map
Tropical Storm Tracking
New forecast layout! Learn more

10-Day Weather Forecast

Advertisements
Track Severe Weather on mobile